Terminal Aerodrome Forecast
Issued by NWS Rapid City, SD

Home | Current Version | Previous Version | Text Only | Print | Product List | Glossary Off
Versions: 1 2 3 4 5 6 7 8 9 10 11 12 13 14 15 16 17 18 19 20 21 22 23 24

000
FTUS43 KUNR 251319 AAA
TAFRAP
TAF AMD
KRAP 251319Z 2513/2612 04007KT 2SM BR OVC006
      TEMPO 2513/2515 1/2SM FG VV002
     FM252000 12010KT 6SM -SHRA OVC035=

USA.gov is the U.S. government's official web portal to all federal, state and local government web resources and services.